Time;durP1;ratioP1;P1;durP2;ratioP2;P2;SDS_P1;SDS_P2;PMS_P1;PMS_P2;Temp;Humidity;BMP_temperature;BMP_pressure;BME280_temperature;BME280_humidity;BME280_pressure;Samples;Min_cycle;Max_cycle;Signal;HPM_P1;HPM_P2
2023/07/28 00:00:09;;;;;;;183.13;166.60;;;18.10;99.90;;;;;;5098196;28;20179;-84
2023/07/28 00:02:35;;;;;;;175.47;159.93;;;18.10;99.90;;;;;;5097959;28;20179;-84
2023/07/28 00:05:01;;;;;;;195.70;178.80;;;18.10;99.90;;;;;;5098211;28;20765;-84
2023/07/28 00:07:26;;;;;;;186.27;169.90;;;18.10;99.90;;;;;;5079259;28;20171;-84
2023/07/28 00:09:52;;;;;;;166.90;151.77;;;18.10;99.90;;;;;;5097485;28;20427;-84
2023/07/28 00:12:18;;;;;;;175.23;159.70;;;18.10;99.90;;;;;;5097663;28;20194;-83
2023/07/28 00:14:43;;;;;;;186.20;169.40;;;18.10;99.90;;;;;;5097601;28;20652;-84
2023/07/28 00:17:09;;;;;;;179.97;164.23;;;18.10;99.90;;;;;;5096951;28;20200;-84
2023/07/28 00:19:35;;;;;;;200.90;183.70;;;18.10;99.90;;;;;;5079072;28;20228;-84
2023/07/28 00:22:00;;;;;;;176.40;160.77;;;18.10;99.90;;;;;;5096847;28;20265;-84
2023/07/28 00:24:26;;;;;;;193.63;176.87;;;18.10;99.90;;;;;;5097439;28;20181;-84
2023/07/28 00:26:51;;;;;;;187.03;170.90;;;18.10;99.90;;;;;;5097588;28;20248;-83
2023/07/28 00:29:17;;;;;;;189.17;172.70;;;18.10;99.90;;;;;;5081267;28;20268;-84
2023/07/28 00:31:43;;;;;;;189.93;173.87;;;18.10;99.90;;;;;;5097711;28;20187;-84
2023/07/28 00:34:08;;;;;;;193.40;176.80;;;18.10;99.90;;;;;;5097778;28;20160;-84
2023/07/28 00:36:34;;;;;;;193.97;177.20;;;18.10;99.90;;;;;;5097695;28;20164;-84
2023/07/28 00:39:00;;;;;;;199.43;182.37;;;18.10;99.90;;;;;;5097097;28;20202;-84
2023/07/28 00:41:25;;;;;;;168.97;153.97;;;18.10;99.90;;;;;;5097455;28;20167;-84
2023/07/28 00:43:51;;;;;;;187.60;171.63;;;18.10;99.90;;;;;;5079340;28;20172;-84
2023/07/28 00:46:17;;;;;;;163.40;148.77;;;18.10;99.90;;;;;;5097556;28;20586;-84
2023/07/28 00:48:43;;;;;;;168.67;153.57;;;18.00;99.90;;;;;;5097327;28;20208;-84
2023/07/28 00:51:09;;;;;;;165.77;150.90;;;18.00;99.90;;;;;;5097101;28;20690;-84
2023/07/28 00:53:35;;;;;;;173.10;157.80;;;18.10;99.90;;;;;;5097120;28;20397;-83
2023/07/28 00:56:02;;;;;;;172.67;157.47;;;18.10;99.90;;;;;;5096779;28;20455;-84
2023/07/28 00:58:28;;;;;;;175.57;160.40;;;18.10;99.90;;;;;;5096917;28;20520;-84
2023/07/28 01:00:53;;;;;;;172.60;157.33;;;18.10;99.90;;;;;;5096976;28;20440;-84
2023/07/28 01:03:20;;;;;;;177.00;161.70;;;18.10;99.90;;;;;;5096939;28;20185;-84
2023/07/28 01:06:20;;;;;;;179.17;163.90;;;18.10;99.90;;;;;;5078265;28;20250;-84
2023/07/28 01:09:14;;;;;;;153.47;138.93;;;18.10;99.90;;;;;;5096658;28;20409;-83
2023/07/28 01:12:06;;;;;;;145.90;132.27;;;18.10;99.90;;;;;;5096745;28;20436;-83
2023/07/28 01:14:32;;;;;;;167.50;152.70;;;18.10;99.90;;;;;;5096608;28;20424;-84
2023/07/28 01:16:58;;;;;;;172.47;157.70;;;18.10;99.90;;;;;;5096102;28;20390;-84
2023/07/28 01:19:24;;;;;;;165.73;151.07;;;18.10;99.90;;;;;;5096928;28;20202;-84
2023/07/28 01:22:13;;;;;;;165.40;150.87;;;18.10;99.90;;;;;;5077923;28;20185;-84
2023/07/28 01:25:03;;;;;;;163.73;149.07;;;18.10;99.90;;;;;;5078313;28;20443;-84
2023/07/28 01:27:29;;;;;;;161.63;147.37;;;18.10;99.90;;;;;;5097646;28;20377;-84
2023/07/28 01:29:54;;;;;;;167.77;152.53;;;18.10;99.90;;;;;;5095511;28;20470;-84
2023/07/28 01:32:20;;;;;;;174.80;159.77;;;18.10;99.90;;;;;;5077841;28;20448;-84
2023/07/28 01:34:46;;;;;;;170.90;155.93;;;18.20;99.90;;;;;;5077948;28;20168;-84
2023/07/28 01:37:11;;;;;;;182.00;166.43;;;18.20;99.90;;;;;;5095850;28;20186;-83
2023/07/28 01:39:37;;;;;;;172.30;157.00;;;18.20;99.90;;;;;;5095730;28;20171;-84
2023/07/28 01:42:03;;;;;;;155.07;141.13;;;18.10;99.90;;;;;;5095828;28;20571;-84
2023/07/28 01:44:29;;;;;;;171.97;157.13;;;18.00;99.90;;;;;;5095957;28;20397;-84
2023/07/28 01:46:54;;;;;;;146.60;132.90;;;18.10;99.90;;;;;;5096028;28;20655;-84
2023/07/28 01:49:20;;;;;;;169.33;154.73;;;18.10;99.90;;;;;;5095583;28;20187;-84
2023/07/28 01:51:46;;;;;;;164.87;149.90;;;18.10;99.90;;;;;;5095617;28;20191;-84
2023/07/28 01:54:14;;;;;;;171.90;156.60;;;18.10;99.90;;;;;;5096059;28;20164;-83
2023/07/28 01:56:39;;;;;;;166.47;151.57;;;18.20;99.90;;;;;;5095704;28;20174;-84
2023/07/28 01:59:05;;;;;;;169.90;155.47;;;18.20;99.90;;;;;;5097143;28;20413;-84
2023/07/28 02:01:31;;;;;;;155.43;141.33;;;18.10;99.90;;;;;;5095963;28;20167;-84
2023/07/28 02:03:56;;;;;;;166.90;152.43;;;18.10;99.90;;;;;;5077914;28;20195;-84
2023/07/28 02:06:23;;;;;;;149.97;136.33;;;18.10;99.90;;;;;;5095962;28;20206;-84
2023/07/28 02:08:48;;;;;;;146.50;133.10;;;18.10;99.90;;;;;;5098107;28;20191;-84
2023/07/28 02:11:14;;;;;;;142.00;128.83;;;18.00;99.90;;;;;;5080868;28;20899;-85
2023/07/28 02:13:40;;;;;;;137.40;124.40;;;18.00;99.90;;;;;;5198419;22;20304;-81
2023/07/28 02:16:06;;;;;;;146.70;132.90;;;18.00;99.90;;;;;;5141798;27;20387;-81
2023/07/28 02:18:31;;;;;;;151.57;137.87;;;18.00;99.90;;;;;;5136126;27;20175;-81
2023/07/28 02:20:57;;;;;;;167.80;153.13;;;18.10;99.90;;;;;;5121428;28;20679;-81
2023/07/28 02:23:22;;;;;;;148.70;134.93;;;18.10;99.90;;;;;;5121003;28;20158;-80
2023/07/28 02:25:48;;;;;;;163.40;148.80;;;18.10;99.90;;;;;;5121744;28;20630;-81
2023/07/28 02:28:14;;;;;;;146.93;133.60;;;18.10;99.90;;;;;;5121033;28;20183;-81
2023/07/28 02:30:39;;;;;;;128.57;115.67;;;18.10;99.90;;;;;;5121070;28;20166;-81
2023/07/28 02:33:05;;;;;;;132.87;120.17;;;18.10;99.90;;;;;;5118291;28;20190;-78
2023/07/28 02:35:31;;;;;;;143.30;130.17;;;18.10;99.90;;;;;;5117730;28;20537;-78
2023/07/28 02:37:58;;;;;;;148.57;134.93;;;18.10;99.90;;;;;;5118050;28;20151;-79
2023/07/28 02:40:23;;;;;;;155.63;141.77;;;18.10;99.90;;;;;;5099831;28;20999;-78
2023/07/28 02:42:49;;;;;;;141.53;128.43;;;18.10;99.90;;;;;;5117919;28;20400;-78
2023/07/28 02:45:15;;;;;;;141.87;128.53;;;18.10;99.90;;;;;;5118307;28;20219;-78
2023/07/28 02:47:40;;;;;;;127.60;115.20;;;18.20;99.90;;;;;;5117993;28;20163;-79
2023/07/28 02:50:06;;;;;;;136.73;124.03;;;18.20;99.90;;;;;;5117932;28;20178;-78
2023/07/28 02:52:32;;;;;;;146.27;133.07;;;18.20;99.90;;;;;;5118214;28;20197;-78
2023/07/28 02:54:58;;;;;;;141.97;128.97;;;18.20;99.90;;;;;;5118487;28;20840;-79
2023/07/28 02:57:26;;;;;;;140.90;128.00;;;18.20;99.90;;;;;;5118755;28;20151;-78
2023/07/28 02:59:52;;;;;;;123.23;110.93;;;18.20;99.90;;;;;;5118126;28;20179;-78
2023/07/28 03:02:18;;;;;;;137.80;124.50;;;18.10;99.90;;;;;;5100050;28;20412;-79
2023/07/28 03:04:43;;;;;;;121.30;109.43;;;18.10;99.90;;;;;;5118461;28;20159;-79
2023/07/28 03:07:09;;;;;;;122.00;110.20;;;18.10;99.90;;;;;;5099873;28;20170;-78
2023/07/28 03:09:35;;;;;;;129.97;117.50;;;18.10;99.90;;;;;;5118100;28;20205;-78
2023/07/28 03:12:00;;;;;;;120.00;108.00;;;18.10;99.90;;;;;;5100085;28;20258;-79
2023/07/28 03:14:26;;;;;;;126.97;114.60;;;18.10;99.90;;;;;;5117951;28;20178;-78
2023/07/28 03:16:52;;;;;;;134.37;121.80;;;18.20;99.90;;;;;;5117224;28;20159;-78
2023/07/28 03:19:18;;;;;;;130.67;117.80;;;18.20;99.90;;;;;;5116441;28;20205;-78
2023/07/28 03:21:43;;;;;;;118.13;106.30;;;18.20;99.90;;;;;;5116378;28;20404;-77
2023/07/28 03:24:09;;;;;;;111.20;99.80;;;18.10;99.90;;;;;;5115122;28;20587;-77
2023/07/28 03:26:34;;;;;;;119.57;107.73;;;18.10;99.90;;;;;;5116200;28;20691;-77
2023/07/28 03:29:00;;;;;;;125.63;113.77;;;18.10;99.90;;;;;;5116167;28;20206;-77
2023/07/28 03:31:26;;;;;;;112.43;101.00;;;18.10;99.90;;;;;;5116267;28;20218;-77
2023/07/28 03:33:51;;;;;;;131.03;118.93;;;18.10;99.90;;;;;;5116440;28;20246;-77
2023/07/28 03:36:19;;;;;;;123.87;111.63;;;18.10;99.90;;;;;;5115873;28;20166;-77
2023/07/28 03:38:44;;;;;;;137.90;125.27;;;18.10;99.90;;;;;;5097463;28;20206;-77
2023/07/28 03:41:10;;;;;;;122.50;110.70;;;18.20;99.90;;;;;;5116013;28;20393;-77
2023/07/28 03:43:36;;;;;;;128.07;115.77;;;18.10;99.90;;;;;;5115947;28;20699;-77
2023/07/28 03:46:01;;;;;;;125.27;113.40;;;18.10;99.90;;;;;;5116051;28;20186;-78
2023/07/28 03:48:30;;;;;;;119.40;107.73;;;18.10;99.90;;;;;;5115657;28;20535;-77
2023/07/28 03:50:56;;;;;;;120.57;108.90;;;18.10;99.90;;;;;;5115860;28;20190;-77
2023/07/28 03:53:22;;;;;;;120.17;108.57;;;18.10;99.90;;;;;;5115937;28;20487;-77
2023/07/28 03:55:47;;;;;;;124.80;113.03;;;18.10;99.90;;;;;;5097330;28;20316;-78
2023/07/28 03:58:13;;;;;;;127.20;115.40;;;18.10;99.90;;;;;;5115811;28;20662;-78
2023/07/28 04:00:39;;;;;;;128.27;116.13;;;18.10;99.90;;;;;;5115605;28;20163;-77
2023/07/28 04:03:04;;;;;;;149.87;136.63;;;18.10;99.90;;;;;;5115558;28;20159;-77
2023/07/28 04:05:30;;;;;;;136.37;123.57;;;18.10;99.90;;;;;;5115419;28;20209;-77
2023/07/28 04:07:56;;;;;;;112.30;100.87;;;18.10;99.90;;;;;;5115346;28;20498;-77
2023/07/28 04:10:22;;;;;;;128.17;115.70;;;18.10;99.90;;;;;;5115594;28;20159;-77
2023/07/28 04:12:47;;;;;;;132.27;120.10;;;18.10;99.90;;;;;;5115167;28;20452;-77
2023/07/28 04:15:13;;;;;;;117.57;105.47;;;18.10;99.90;;;;;;5115361;28;20439;-77
2023/07/28 04:17:38;;;;;;;124.23;112.27;;;18.10;99.90;;;;;;5115556;28;20171;-77
2023/07/28 04:20:07;;;;;;;142.27;129.23;;;18.10;99.90;;;;;;5115004;28;20185;-77
2023/07/28 04:22:33;;;;;;;116.47;104.33;;;18.20;99.90;;;;;;5115115;28;20165;-77
2023/07/28 04:24:58;;;;;;;128.20;115.97;;;18.10;99.90;;;;;;5115464;28;20877;-77
2023/07/28 04:27:24;;;;;;;124.20;112.13;;;18.10;99.90;;;;;;5114968;28;20700;-77
2023/07/28 04:29:49;;;;;;;116.13;104.47;;;18.10;99.90;;;;;;5096586;28;20313;-78
2023/07/28 04:32:15;;;;;;;122.20;109.63;;;18.10;99.90;;;;;;5114815;28;20175;-77
2023/07/28 04:34:41;;;;;;;136.13;123.13;;;18.10;99.90;;;;;;5114520;28;20166;-77
2023/07/28 04:37:06;;;;;;;129.33;116.63;;;18.20;99.90;;;;;;5115673;28;20166;-78
2023/07/28 04:39:32;;;;;;;149.90;136.40;;;18.20;99.90;;;;;;5116388;28;20182;-78
2023/07/28 04:41:58;;;;;;;127.33;114.70;;;18.20;99.90;;;;;;5116202;28;20265;-78
2023/07/28 04:44:23;;;;;;;120.27;108.27;;;18.20;99.90;;;;;;5116525;28;20173;-78
2023/07/28 04:46:49;;;;;;;131.03;117.73;;;18.30;99.90;;;;;;5097630;28;20174;-78
2023/07/28 04:49:15;;;;;;;127.53;115.27;;;18.30;99.90;;;;;;5115973;28;20186;-79
2023/07/28 04:51:40;;;;;;;130.90;118.23;;;18.30;99.90;;;;;;5116092;28;20190;-78
2023/07/28 04:54:06;;;;;;;112.40;100.30;;;18.30;99.90;;;;;;5115878;28;20167;-78
2023/07/28 04:56:31;;;;;;;136.57;123.83;;;18.30;99.90;;;;;;5116587;28;20166;-78
2023/07/28 04:58:58;;;;;;;135.00;122.50;;;18.30;99.90;;;;;;5115638;28;20183;-79
2023/07/28 05:01:25;;;;;;;133.97;121.23;;;18.30;99.90;;;;;;5115721;28;20166;-79
2023/07/28 05:03:50;;;;;;;139.20;125.87;;;18.40;99.90;;;;;;5116073;28;20396;-78
2023/07/28 05:06:17;;;;;;;145.43;132.37;;;18.50;99.90;;;;;;5115695;28;20508;-78
2023/07/28 05:08:43;;;;;;;150.47;136.87;;;18.50;99.90;;;;;;5115802;28;20224;-79
2023/07/28 05:11:08;;;;;;;159.53;145.53;;;18.50;99.90;;;;;;5115592;28;20445;-78
2023/07/28 05:13:34;;;;;;;155.80;141.97;;;18.60;99.90;;;;;;5115069;28;20189;-78
2023/07/28 05:16:00;;;;;;;163.40;149.63;;;18.60;99.90;;;;;;5114288;28;20165;-78
2023/07/28 05:18:25;;;;;;;157.40;143.13;;;18.60;99.90;;;;;;5096022;28;20214;-78
2023/07/28 05:20:51;;;;;;;150.13;136.83;;;18.60;99.90;;;;;;5114622;28;20166;-78
2023/07/28 05:23:17;;;;;;;147.43;134.33;;;18.60;99.90;;;;;;5114559;28;20168;-77
2023/07/28 05:25:42;;;;;;;148.27;134.90;;;18.60;99.90;;;;;;5114629;28;20201;-78
2023/07/28 05:28:08;;;;;;;151.30;137.80;;;18.60;99.90;;;;;;5114348;28;20192;-78
2023/07/28 05:30:33;;;;;;;150.67;137.60;;;18.60;99.90;;;;;;5096280;28;20646;-78
2023/07/28 05:32:59;;;;;;;154.43;141.03;;;18.70;99.90;;;;;;5114421;28;20254;-77
2023/07/28 05:35:25;;;;;;;140.27;127.17;;;18.70;99.90;;;;;;5114601;28;20630;-78
2023/07/28 05:37:50;;;;;;;151.37;137.47;;;18.60;99.90;;;;;;5114801;28;20178;-78
2023/07/28 05:40:16;;;;;;;160.47;145.73;;;18.70;99.90;;;;;;5114694;28;20192;-78
2023/07/28 05:42:41;;;;;;;161.73;147.53;;;18.70;99.90;;;;;;5114453;28;20170;-78
2023/07/28 05:45:08;;;;;;;149.07;135.80;;;18.70;99.90;;;;;;5114303;28;20203;-78
2023/07/28 05:47:34;;;;;;;150.33;136.47;;;18.80;99.90;;;;;;5117388;28;20163;-78
2023/07/28 05:50:00;;;;;;;153.43;139.47;;;18.80;99.90;;;;;;5118385;28;20438;-78
2023/07/28 05:52:25;;;;;;;158.13;144.53;;;18.90;99.90;;;;;;5118250;28;20803;-78
2023/07/28 05:54:51;;;;;;;151.90;138.10;;;19.00;99.90;;;;;;5119059;28;20452;-78
2023/07/28 05:57:17;;;;;;;152.83;139.37;;;19.00;99.90;;;;;;5118510;28;20163;-78
2023/07/28 05:59:42;;;;;;;174.30;159.77;;;18.90;99.90;;;;;;5118644;28;20580;-78
2023/07/28 06:02:08;;;;;;;159.43;145.43;;;19.00;99.90;;;;;;5119146;28;20660;-78
2023/07/28 06:04:34;;;;;;;151.73;137.83;;;19.00;99.90;;;;;;5118597;28;20167;-78
2023/07/28 06:06:59;;;;;;;152.70;138.57;;;19.10;99.90;;;;;;5118605;28;20246;-78
2023/07/28 06:09:25;;;;;;;151.97;138.50;;;19.00;99.90;;;;;;5118563;28;20277;-78
2023/07/28 06:11:50;;;;;;;159.33;145.63;;;19.10;99.90;;;;;;5118371;28;20193;-78
2023/07/28 06:14:16;;;;;;;179.27;163.67;;;19.10;99.90;;;;;;5099924;28;20182;-78
2023/07/28 06:16:42;;;;;;;177.87;163.47;;;19.10;99.90;;;;;;5118235;28;20629;-78
2023/07/28 06:19:08;;;;;;;174.60;160.50;;;19.10;99.90;;;;;;5118035;28;20183;-78
2023/07/28 06:21:34;;;;;;;177.17;162.50;;;19.10;99.90;;;;;;5117879;28;20178;-78
2023/07/28 06:23:59;;;;;;;193.40;178.60;;;19.10;99.90;;;;;;5117718;28;20404;-78
2023/07/28 06:26:25;;;;;;;198.07;183.20;;;19.10;99.90;;;;;;5118100;28;20246;-78
2023/07/28 06:28:51;;;;;;;183.80;169.00;;;19.20;99.90;;;;;;5117793;28;20467;-77
2023/07/28 06:31:17;;;;;;;177.43;163.10;;;19.20;99.90;;;;;;5099162;28;20858;-78
2023/07/28 06:33:43;;;;;;;178.70;164.13;;;19.20;99.90;;;;;;5117557;28;20163;-78
2023/07/28 06:36:08;;;;;;;184.10;168.80;;;19.20;99.90;;;;;;5099289;28;20174;-77
2023/07/28 06:38:34;;;;;;;182.03;167.53;;;19.20;99.90;;;;;;5098966;28;20427;-78
2023/07/28 06:41:00;;;;;;;178.50;164.00;;;19.30;99.90;;;;;;5117210;28;20568;-78
2023/07/28 06:43:26;;;;;;;186.37;171.43;;;19.20;99.90;;;;;;5117364;28;20201;-78
2023/07/28 06:45:52;;;;;;;173.83;159.20;;;19.20;99.90;;;;;;5117145;28;20641;-78
2023/07/28 06:48:21;;;;;;;173.00;158.93;;;19.20;99.90;;;;;;5117342;28;20471;-78
2023/07/28 06:50:47;;;;;;;183.17;168.47;;;19.30;99.90;;;;;;5116912;28;20499;-78
2023/07/28 06:53:12;;;;;;;168.57;154.27;;;19.20;99.90;;;;;;5117382;28;20487;-78
2023/07/28 06:55:39;;;;;;;166.97;152.60;;;19.20;99.90;;;;;;5117239;28;20654;-78
2023/07/28 06:58:06;;;;;;;158.40;144.73;;;19.20;99.90;;;;;;5116636;28;20197;-78
2023/07/28 07:00:32;;;;;;;147.27;134.10;;;19.30;99.90;;;;;;5098846;28;20409;-78
2023/07/28 07:02:59;;;;;;;162.43;148.27;;;19.30;99.90;;;;;;5098583;28;20801;-78
2023/07/28 07:05:24;;;;;;;164.77;150.37;;;19.30;99.90;;;;;;5116834;28;20396;-78
2023/07/28 07:07:50;;;;;;;173.73;158.77;;;19.30;99.90;;;;;;5117128;28;20171;-78
2023/07/28 07:10:16;;;;;;;157.40;143.57;;;19.40;99.90;;;;;;5117278;27;20194;-78
2023/07/28 07:12:41;;;;;;;150.23;137.00;;;19.40;99.90;;;;;;5117498;28;20344;-78
2023/07/28 07:15:08;;;;;;;131.93;119.23;;;19.50;99.90;;;;;;5118309;28;20174;-79
2023/07/28 07:17:34;;;;;;;137.27;124.00;;;19.50;99.90;;;;;;5117478;28;20896;-79
2023/07/28 07:19:59;;;;;;;128.67;115.60;;;19.60;99.90;;;;;;5117257;28;20425;-79
2023/07/28 07:22:25;;;;;;;139.97;127.27;;;19.60;99.90;;;;;;5117619;28;20167;-79
2023/07/28 07:24:51;;;;;;;155.67;142.27;;;19.70;99.90;;;;;;5117039;28;20171;-78
2023/07/28 07:27:16;;;;;;;180.43;165.77;;;19.70;99.90;;;;;;5098750;28;20172;-78
2023/07/28 07:29:42;;;;;;;183.97;169.77;;;19.80;99.90;;;;;;5117292;28;20192;-79
2023/07/28 07:32:09;;;;;;;217.07;201.50;;;19.80;99.90;;;;;;5117326;28;20187;-78
2023/07/28 07:34:37;;;;;;;197.97;183.03;;;19.80;99.90;;;;;;5098463;28;20231;-79
2023/07/28 07:37:03;;;;;;;233.80;217.63;;;19.80;99.90;;;;;;5117288;28;20406;-79
2023/07/28 07:39:28;;;;;;;228.10;211.97;;;19.90;99.90;;;;;;5099022;28;20425;-78
2023/07/28 07:41:54;;;;;;;213.70;197.40;;;19.90;99.90;;;;;;5098849;28;20457;-79
2023/07/28 07:44:20;;;;;;;221.90;205.67;;;19.90;99.90;;;;;;5098794;28;20175;-79
2023/07/28 07:46:46;;;;;;;231.73;215.20;;;19.80;99.90;;;;;;5116944;28;20401;-79
2023/07/28 07:49:11;;;;;;;226.47;210.27;;;19.90;99.90;;;;;;5116852;28;20190;-79
2023/07/28 07:51:37;;;;;;;233.50;217.13;;;19.90;99.90;;;;;;5116314;28;20564;-79
2023/07/28 07:54:03;;;;;;;231.63;215.27;;;19.90;99.90;;;;;;5116878;28;20640;-79
2023/07/28 07:56:29;;;;;;;246.47;229.70;;;20.00;99.90;;;;;;5116177;28;20172;-78
2023/07/28 07:58:54;;;;;;;215.00;199.00;;;20.00;99.90;;;;;;5116577;28;20943;-78
2023/07/28 08:01:20;;;;;;;200.10;184.77;;;20.10;99.90;;;;;;5116243;28;20908;-78
2023/07/28 08:03:46;;;;;;;197.20;182.20;;;20.20;99.90;;;;;;5116575;28;20173;-78
2023/07/28 08:06:12;;;;;;;185.90;170.87;;;20.40;99.90;;;;;;5115921;28;20177;-78
2023/07/28 08:08:38;;;;;;;207.30;191.60;;;20.60;99.90;;;;;;5116447;28;20221;-78
2023/07/28 08:11:04;;;;;;;230.93;214.27;;;20.80;99.90;;;;;;5116313;28;20471;-78
2023/07/28 08:14:14;;;;;;;282.17;263.37;;;20.90;99.90;;;;;;5153371;22;20485;-85
2023/07/28 08:16:56;;;;;;;274.80;255.53;;;21.10;99.90;;;;;;5079273;28;20147;-85
2023/07/28 08:19:30;;;;;;;287.07;267.33;;;21.20;99.90;;;;;;5077810;28;20519;-85
2023/07/28 08:22:06;;;;;;;208.30;192.03;;;21.30;99.90;;;;;;5079684;28;20396;-84
2023/07/28 08:24:38;;;;;;;156.47;142.57;;;21.40;99.90;;;;;;5077606;28;20405;-84
2023/07/28 08:27:38;;;;;;;172.30;157.17;;;21.50;99.90;;;;;;5077695;28;20459;-84
2023/07/28 08:30:34;;;;;;;110.17;98.23;;;21.60;99.90;;;;;;5079382;28;20467;-84
2023/07/28 08:33:15;;;;;;;119.73;106.63;;;21.60;99.90;;;;;;5078275;28;20821;-84
2023/07/28 08:35:49;;;;;;;115.67;102.93;;;21.70;99.90;;;;;;5079238;28;20417;-84
2023/07/28 08:38:33;;;;;;;99.37;80.70;;;21.80;99.90;;;;;;5078701;28;20833;-84
2023/07/28 08:41:05;;;;;;;88.77;51.50;;;21.90;99.90;;;;;;5079658;28;20416;-84
2023/07/28 08:43:37;;;;;;;99.87;74.83;;;22.10;99.90;;;;;;5079784;28;20414;-85
2023/07/28 08:46:22;;;;;;;99.63;73.57;;;22.20;99.90;;;;;;5079821;28;20789;-85
2023/07/28 08:48:57;;;;;;;104.90;87.70;;;22.30;99.90;;;;;;5079400;28;20805;-85
2023/07/28 08:51:35;;;;;;;129.80;117.60;;;22.30;99.90;;;;;;5080248;28;20924;-85
2023/07/28 08:54:03;;;;;;;135.40;123.00;;;22.30;99.90;;;;;;5079851;28;20739;-85
2023/07/28 08:56:52;;;;;;;129.23;117.20;;;22.20;99.90;;;;;;5079459;28;20409;-85
2023/07/28 08:59:26;;;;;;;142.50;129.33;;;22.10;99.90;;;;;;5076975;28;20430;-85
2023/07/28 09:01:59;;;;;;;119.73;108.07;;;22.00;99.90;;;;;;5078917;28;20795;-85
2023/07/28 09:05:01;;;;;;;128.10;116.00;;;21.90;99.90;;;;;;5079180;28;20453;-85
2023/07/28 09:07:46;;;;;;;122.50;110.40;;;21.90;99.90;;;;;;5057922;28;20941;-85
2023/07/28 09:10:12;;;;;;;128.60;116.33;;;22.00;99.90;;;;;;5077256;28;20503;-84
2023/07/28 09:13:02;;;;;;;144.23;131.37;;;22.10;99.90;;;;;;5079509;28;20961;-85
2023/07/28 09:15:46;;;;;;;148.77;135.37;;;22.20;99.90;;;;;;5078595;28;20794;-86
2023/07/28 09:18:32;;;;;;;136.47;124.07;;;22.30;99.90;;;;;;5079150;28;20556;-84
2023/07/28 09:20:58;;;;;;;123.60;111.60;;;22.40;99.90;;;;;;5076716;28;20404;-84
2023/07/28 09:23:35;;;;;;;136.80;123.67;;;22.50;99.90;;;;;;5078033;28;20489;-83
2023/07/28 09:26:09;;;;;;;142.83;129.93;;;22.70;99.90;;;;;;5076982;28;20404;-85
2023/07/28 09:28:47;;;;;;;130.83;118.73;;;22.90;99.90;;;;;;5077685;28;20840;-84
2023/07/28 09:31:38;;;;;;;;;;;;;;;;;;;;;
2023/07/28 09:34:11;;;;;;;81.50;33.63;;;23.20;99.90;;;;;;5078677;28;20474;-84
2023/07/28 09:36:43;;;;;;;78.50;31.93;;;23.20;99.90;;;;;;5078462;28;20784;-84
2023/07/28 09:39:08;;;;;;;80.60;35.57;;;23.30;99.90;;;;;;5076842;28;20944;-85
2023/07/28 09:41:38;;;;;;;78.10;30.70;;;23.50;99.90;;;;;;5077002;28;20409;-84
2023/07/28 09:44:07;;;;;;;83.20;43.40;;;23.60;99.90;;;;;;5077243;28;20194;-85
2023/07/28 09:46:37;;;;;;;73.23;17.27;;;23.80;99.90;;;;;;5077890;28;20398;-84
2023/07/28 09:49:24;;;;;;;79.20;28.17;;;23.80;99.90;;;;;;5083703;22;20488;-84
2023/07/28 09:51:59;;;;;;;74.07;17.77;;;23.60;99.90;;;;;;5077014;28;21109;-84
2023/07/28 09:54:29;;;;;;;72.77;15.47;;;23.60;99.90;;;;;;5079124;28;20909;-84
2023/07/28 09:56:59;;;;;;;74.33;17.43;;;23.60;99.90;;;;;;5078777;28;20445;-84
2023/07/28 09:59:45;;;;;;;72.13;13.47;;;23.50;99.90;;;;;;5079036;28;20500;-83
2023/07/28 10:02:11;;;;;;;73.60;18.23;;;23.60;99.90;;;;;;5079867;28;20450;-84
2023/07/28 10:04:37;;;;;;;73.90;17.20;;;23.60;99.90;;;;;;5079022;28;20456;-84
2023/07/28 10:07:07;;;;;;;78.77;30.37;;;23.70;99.90;;;;;;5079263;28;20394;-84
2023/07/28 10:09:33;;;;;;;79.07;33.17;;;23.80;99.90;;;;;;5079853;28;20429;-84
2023/07/28 10:12:01;;;;;;;78.40;27.53;;;23.80;99.90;;;;;;5078444;28;20456;-84
2023/07/28 10:14:34;;;;;;;76.27;25.00;;;23.90;99.90;;;;;;5078011;28;20944;-83
2023/07/28 10:17:06;;;;;;;77.80;28.70;;;24.10;99.90;;;;;;5078183;28;20409;-84
2023/07/28 10:19:36;;;;;;;77.57;29.43;;;24.30;99.90;;;;;;5078420;28;20459;-84
2023/07/28 10:22:15;;;;;;;82.70;43.03;;;24.30;99.90;;;;;;5079395;28;20540;-83
2023/07/28 10:24:58;;;;;;;81.13;35.83;;;24.40;99.90;;;;;;5079767;28;20954;-84
2023/07/28 10:27:59;;;;;;;81.70;39.77;;;24.40;99.90;;;;;;5077517;28;20386;-84
2023/07/28 10:30:28;;;;;;;82.43;40.20;;;24.60;99.90;;;;;;5067342;28;20490;-84
2023/07/28 10:32:57;;;;;;;77.93;27.93;;;24.80;99.90;;;;;;5079396;28;20533;-83
2023/07/28 10:35:27;;;;;;;80.47;34.50;;;24.90;99.90;;;;;;5082035;28;20422;-84
2023/07/28 10:37:58;;;;;;;77.40;26.60;;;24.90;99.90;;;;;;5081194;28;20406;-83
2023/07/28 10:40:31;;;;;;;71.97;11.70;;;24.90;99.90;;;;;;5082611;28;20409;-84
2023/07/28 10:42:58;;;;;;;71.50;10.87;;;25.00;99.90;;;;;;5082214;28;20414;-83
2023/07/28 10:45:29;;;;;;;73.37;16.07;;;25.00;99.90;;;;;;5081812;28;20910;-84
2023/07/28 10:47:56;;;;;;;69.57;5.27;;;25.00;99.90;;;;;;5081445;28;20945;-84
2023/07/28 10:50:26;;;;;;;71.57;10.50;;;25.30;99.90;;;;;;5079249;28;20930;-84
2023/07/28 10:52:57;;;;;;;73.07;11.07;;;25.20;99.90;;;;;;5079466;28;20503;-84
2023/07/28 10:55:26;;;;;;;69.87;6.67;;;25.50;99.90;;;;;;5081370;28;20376;-84
2023/07/28 10:57:53;;;;;;;70.53;8.20;;;25.40;99.90;;;;;;5080838;28;20386;-83
2023/07/28 11:00:21;;;;;;;73.00;15.30;;;25.60;99.90;;;;;;5080161;28;20412;-84
2023/07/28 11:02:54;;;;;;;71.17;9.90;;;25.80;99.90;;;;;;5080064;28;20423;-84
2023/07/28 11:05:25;;;;;;;73.60;16.43;;;25.80;99.90;;;;;;5081075;28;20401;-84
2023/07/28 11:07:54;;;;;;;73.60;16.90;;;25.90;99.90;;;;;;5079924;28;20412;-84
2023/07/28 11:10:20;;;;;;;75.83;22.40;;;25.90;99.90;;;;;;5079218;28;20400;-82
2023/07/28 11:12:51;;;;;;;75.97;19.50;;;25.70;99.90;;;;;;5079454;28;20489;-82
2023/07/28 11:15:18;;;;;;;74.73;19.50;;;25.40;99.90;;;;;;5077840;28;20407;-83
2023/07/28 11:17:46;;;;;;;71.50;11.07;;;25.20;99.90;;;;;;5077922;28;20407;-83
2023/07/28 11:20:30;;;;;;;73.97;17.27;;;25.00;99.90;;;;;;5077505;28;20517;-83
2023/07/28 11:23:04;;;;;;;72.97;15.37;;;25.00;97.30;;;;;;5077931;28;20411;-82
2023/07/28 11:25:32;;;;;;;70.53;9.43;;;24.90;81.00;;;;;;5078838;28;20427;-84
2023/07/28 11:28:00;;;;;;;72.03;13.20;;;25.00;80.00;;;;;;5078806;28;20409;-83
2023/07/28 11:30:26;;;;;;;72.20;13.40;;;25.00;71.00;;;;;;5079218;28;20586;-83
2023/07/28 11:32:53;;;;;;;72.63;12.53;;;25.00;68.40;;;;;;5078158;28;20430;-83
2023/07/28 11:35:21;;;;;;;69.37;5.30;;;24.80;61.60;;;;;;5078460;28;20156;-83
2023/07/28 11:37:52;;;;;;;68.93;5.43;;;24.80;86.50;;;;;;5077974;28;20398;-82
2023/07/28 11:40:20;;;;;;;71.13;8.90;;;24.60;92.70;;;;;;5077060;28;20918;-81
2023/07/28 11:42:52;;;;;;;73.80;12.90;;;24.30;99.90;;;;;;5077458;28;20845;-82
2023/07/28 11:45:19;;;;;;;72.93;16.13;;;24.20;99.90;;;;;;5077633;28;20421;-83
2023/07/28 11:47:58;;;;;;;70.90;11.13;;;24.20;99.90;;;;;;5078278;28;20402;-82
2023/07/28 11:50:25;;;;;;;75.93;24.23;;;24.20;99.90;;;;;;5077591;28;20493;-82
2023/07/28 11:52:51;;;;;;;77.27;29.07;;;24.50;99.90;;;;;;5077703;28;20446;-82
2023/07/28 11:55:18;;;;;;;79.97;34.67;;;24.60;99.90;;;;;;5078240;28;20959;-83
2023/07/28 11:57:44;;;;;;;79.50;30.80;;;24.80;99.90;;;;;;5078680;28;20217;-82
2023/07/28 12:00:12;;;;;;;75.77;23.60;;;25.10;99.90;;;;;;5078771;28;20501;-83
2023/07/28 12:02:38;;;;;;;74.50;16.43;;;25.50;99.90;;;;;;5078706;28;20190;-83
2023/07/28 12:05:12;;;;;;;70.47;7.10;;;25.90;99.90;;;;;;5077951;28;20410;-83
2023/07/28 12:07:38;;;;;;;70.90;9.00;;;25.90;91.00;;;;;;5077486;28;20168;-83
2023/07/28 12:10:08;;;;;;;72.80;9.43;;;25.80;90.10;;;;;;5076947;28;20424;-85
2023/07/28 12:12:41;;;;;;;72.70;11.20;;;26.00;85.30;;;;;;5078703;28;20196;-84
2023/07/28 12:15:27;;;;;;;71.10;11.27;;;26.00;82.30;;;;;;5077888;28;20454;-85
2023/07/28 12:18:06;;;;;;;82.50;40.27;;;26.20;89.10;;;;;;5079014;28;20381;-83
2023/07/28 12:20:46;;;;;;;78.10;28.27;;;26.40;62.20;;;;;;5079573;28;20405;-83